createdAt,value
2023-04-25T00:01:57.800Z,11.77
2023-04-25T00:04:24.985Z,11.72
2023-04-25T00:06:53.419Z,11.67
2023-04-25T00:09:20.312Z,11.62
2023-04-25T00:11:47.157Z,11.59
2023-04-25T00:15:27.959Z,11.38
2023-04-25T00:17:54.796Z,11.57
2023-04-25T00:20:23.034Z,11.57
2023-04-25T00:22:50.564Z,11.51
2023-04-25T00:25:17.642Z,11.46
2023-04-25T00:27:44.437Z,11.40
2023-04-25T00:30:12.368Z,11.35
2023-04-25T00:32:39.202Z,11.30
2023-04-25T00:35:06.977Z,11.26
2023-04-25T00:37:33.835Z,11.21
2023-04-25T00:40:00.699Z,11.10
2023-04-25T00:42:27.505Z,11.09
2023-04-25T00:44:54.414Z,11.15
2023-04-25T00:47:21.256Z,11.19
2023-04-25T00:49:48.321Z,11.21
2023-04-25T00:52:15.583Z,11.19
2023-04-25T00:54:42.432Z,11.18
2023-04-25T00:57:09.556Z,11.16
2023-04-25T00:59:36.545Z,11.13
2023-04-25T01:02:03.422Z,11.06
2023-04-25T01:04:30.398Z,11.00
2023-04-25T01:06:57.857Z,10.94
2023-04-25T01:09:24.983Z,10.89
2023-04-25T01:11:51.852Z,10.88
2023-04-25T01:14:18.673Z,10.90
2023-04-25T01:16:46.032Z,10.89
2023-04-25T01:19:13.424Z,10.89
2023-04-25T01:21:40.286Z,10.86
2023-04-25T01:24:07.400Z,10.83
2023-04-25T01:26:34.307Z,10.79
2023-04-25T01:29:01.265Z,10.76
2023-04-25T01:31:28.992Z,10.76
2023-04-25T01:33:55.857Z,10.70
2023-04-25T01:36:22.974Z,10.65
2023-04-25T01:38:50.116Z,10.65
2023-04-25T01:41:18.130Z,10.68
2023-04-25T01:43:45.143Z,10.66
2023-04-25T01:46:12.760Z,10.62
2023-04-25T01:48:39.581Z,10.57
2023-04-25T01:51:07.395Z,10.53
2023-04-25T01:53:34.594Z,10.50
2023-04-25T01:56:02.607Z,10.45
2023-04-25T01:58:33.773Z,10.42
2023-04-25T02:01:27.087Z,10.44
2023-04-25T02:04:08.958Z,10.48
2023-04-25T02:06:37.288Z,10.50
2023-04-25T02:09:04.222Z,10.50
2023-04-25T02:11:31.171Z,10.45
2023-04-25T02:14:16.863Z,10.41
2023-04-25T02:17:06.885Z,10.36
2023-04-25T02:19:33.865Z,10.32
2023-04-25T02:22:01.116Z,10.27
2023-04-25T02:24:29.049Z,10.23
2023-04-25T02:26:57.170Z,10.17
2023-04-25T02:29:24.106Z,10.10
2023-04-25T02:31:51.350Z,10.11
2023-04-25T02:34:18.287Z,10.15
2023-04-25T02:36:45.115Z,10.19
2023-04-25T02:39:12.012Z,10.22
2023-04-25T02:41:39.296Z,10.22
2023-04-25T02:44:06.332Z,10.21
2023-04-25T02:49:05.029Z,10.14
2023-04-25T02:51:32.202Z,10.12
2023-04-25T02:53:59.735Z,10.10
2023-04-25T02:56:27.379Z,10.12
2023-04-25T02:58:54.804Z,10.16
2023-04-25T03:01:22.261Z,10.22
2023-04-25T03:03:49.789Z,10.27
2023-04-25T03:06:17.037Z,10.27
2023-04-25T03:08:44.521Z,10.26
2023-04-25T03:11:11.738Z,10.26
2023-04-25T03:13:38.701Z,10.27
2023-04-25T03:16:06.554Z,10.27
2023-04-25T03:18:33.476Z,10.27
2023-04-25T03:21:00.616Z,10.32
2023-04-25T03:23:27.525Z,10.37
2023-04-25T03:25:54.333Z,10.43
2023-04-25T03:28:21.595Z,10.45
2023-04-25T03:30:48.554Z,10.47
2023-04-25T03:33:15.674Z,10.51
2023-04-25T03:35:43.675Z,10.54
2023-04-25T03:38:10.953Z,10.54
2023-04-25T03:40:39.645Z,10.53
2023-04-25T03:43:16.347Z,10.54
2023-04-25T03:45:48.236Z,10.61
2023-04-25T03:48:15.791Z,10.69
2023-04-25T03:50:43.547Z,10.76
2023-04-25T03:53:10.352Z,10.84
2023-04-25T03:55:57.169Z,10.88
2023-04-25T03:58:25.435Z,10.91
2023-04-25T04:00:52.305Z,10.95
2023-04-25T04:03:19.760Z,10.98
2023-04-25T04:05:47.695Z,11.01
2023-04-25T04:08:14.656Z,11.05
2023-04-25T04:10:42.469Z,11.12
2023-04-25T04:13:09.622Z,11.24
2023-04-25T04:15:36.845Z,11.37
2023-04-25T04:18:04.054Z,11.49
2023-04-25T04:20:31.614Z,11.59
2023-04-25T04:22:58.483Z,11.69
2023-04-25T04:25:25.692Z,11.79
2023-04-25T04:28:22.883Z,11.85
2023-04-25T04:31:02.146Z,11.90
2023-04-25T04:33:29.319Z,11.97
2023-04-25T04:36:00.124Z,12.04
2023-04-25T04:38:27.842Z,12.11
2023-04-25T04:40:57.329Z,12.18
2023-04-25T04:43:44.491Z,12.25
2023-04-25T04:46:43.209Z,12.32
2023-04-25T04:49:33.644Z,12.39
2023-04-25T04:52:21.117Z,12.45
2023-04-25T04:54:53.723Z,12.51
2023-04-25T04:57:43.680Z,12.61
2023-04-25T05:00:34.385Z,12.76
2023-04-25T05:03:17.567Z,12.85
2023-04-25T05:06:06.534Z,12.96
2023-04-25T05:08:53.950Z,13.08
2023-04-25T05:11:38.103Z,13.14
2023-04-25T05:14:25.017Z,13.23
2023-04-25T05:17:09.472Z,13.30
2023-04-25T05:19:42.334Z,13.37
2023-04-25T05:22:27.899Z,13.44
2023-04-25T05:25:17.856Z,13.52
2023-04-25T05:27:58.233Z,13.60
2023-04-25T05:30:45.435Z,13.69
2023-04-25T05:33:18.555Z,13.80
2023-04-25T05:35:45.975Z,13.94
2023-04-25T05:38:12.794Z,14.05
2023-04-25T05:40:58.510Z,14.17
2023-04-25T05:43:52.072Z,14.25
2023-04-25T05:46:24.434Z,14.32
2023-04-25T05:49:26.629Z,14.42
2023-04-25T05:51:53.601Z,14.50
2023-04-25T05:54:38.983Z,14.57
2023-04-25T05:57:05.879Z,14.62
2023-04-25T05:59:32.924Z,14.69
2023-04-25T06:02:00.011Z,14.74
2023-04-25T06:04:27.700Z,14.79
2023-04-25T06:06:54.774Z,14.83
2023-04-25T06:09:22.784Z,14.88
2023-04-25T06:11:49.824Z,14.94
2023-04-25T06:14:17.468Z,14.99
2023-04-25T06:16:47.731Z,15.04
2023-04-25T06:19:14.626Z,15.09
2023-04-25T06:21:44.226Z,15.15
2023-04-25T06:24:11.305Z,15.19
2023-04-25T06:26:38.222Z,15.24
2023-04-25T06:29:05.386Z,15.30
2023-04-25T06:31:34.093Z,15.36
2023-04-25T06:34:01.351Z,15.41
2023-04-25T06:36:28.830Z,15.45
2023-04-25T06:39:00.298Z,15.50
2023-04-25T06:41:27.143Z,15.56
2023-04-25T06:43:58.027Z,15.62
2023-04-25T06:46:39.305Z,15.70
2023-04-25T06:49:06.426Z,15.78
2023-04-25T06:51:33.790Z,15.86
2023-04-25T06:54:01.110Z,15.94
2023-04-25T06:56:32.094Z,16.02
2023-04-25T06:59:06.001Z,16.09
2023-04-25T07:01:37.999Z,16.17
2023-04-25T07:04:08.819Z,16.24
2023-04-25T07:06:43.486Z,16.31
2023-04-25T07:09:13.951Z,16.39
2023-04-25T07:11:42.153Z,16.47
2023-04-25T07:14:09.187Z,16.55
2023-04-25T07:16:36.128Z,16.63
2023-04-25T07:19:03.330Z,16.72
2023-04-25T07:21:32.045Z,16.82
2023-04-25T07:24:01.056Z,16.91
2023-04-25T07:26:31.782Z,17.01
2023-04-25T07:29:17.433Z,17.12
2023-04-25T07:31:44.344Z,17.23
2023-04-25T07:34:11.303Z,17.32
2023-04-25T07:36:38.847Z,17.41
2023-04-25T07:39:05.986Z,17.49
2023-04-25T07:41:33.057Z,17.55
2023-04-25T07:44:00.031Z,17.61
2023-04-25T07:46:27.212Z,17.70
2023-04-25T07:48:54.381Z,17.80
2023-04-25T07:51:23.272Z,17.88
2023-04-25T07:53:52.434Z,17.93
2023-04-25T07:56:20.903Z,17.99
2023-04-25T07:58:48.273Z,18.08
2023-04-25T08:01:15.491Z,18.15
2023-04-25T08:03:55.173Z,18.23
2023-04-25T08:06:54.930Z,18.36
2023-04-25T08:09:28.210Z,18.51
2023-04-25T08:11:56.031Z,18.64
2023-04-25T08:14:26.758Z,18.78
2023-04-25T08:16:53.997Z,18.91
2023-04-25T08:19:21.106Z,19.03
2023-04-25T08:21:48.071Z,19.08
2023-04-25T08:24:17.929Z,19.15
2023-04-25T08:26:44.925Z,19.23
2023-04-25T08:29:15.859Z,19.32
2023-04-25T08:31:43.596Z,19.42
2023-04-25T08:34:10.859Z,19.54
2023-04-25T08:36:45.944Z,19.67
2023-04-25T08:39:31.275Z,19.73
2023-04-25T08:42:16.952Z,19.80
2023-04-25T08:44:44.209Z,19.85
2023-04-25T08:47:11.482Z,19.98
2023-04-25T08:49:51.404Z,20.12
2023-04-25T08:52:18.602Z,20.19
2023-04-25T08:54:45.891Z,20.21
2023-04-25T08:57:13.035Z,20.22
2023-04-25T08:59:40.745Z,20.19
2023-04-25T09:02:09.443Z,20.16
2023-04-25T09:04:36.512Z,20.15
2023-04-25T09:07:03.558Z,20.14
2023-04-25T09:09:30.568Z,20.13
2023-04-25T09:11:58.167Z,20.14
2023-04-25T09:14:27.062Z,20.18
2023-04-25T09:17:06.347Z,20.24
2023-04-25T09:19:41.996Z,20.26
2023-04-25T09:22:16.994Z,20.24
2023-04-25T09:24:45.251Z,20.23
2023-04-25T09:27:13.650Z,20.23
2023-04-25T09:29:42.003Z,20.22
2023-04-25T09:32:22.506Z,20.22
2023-04-25T09:34:55.034Z,20.27
2023-04-25T09:37:27.365Z,20.32
2023-04-25T09:40:07.344Z,20.36
2023-04-25T09:42:36.565Z,20.40
2023-04-25T09:45:03.867Z,20.40
2023-04-25T09:47:33.968Z,20.44
2023-04-25T09:50:01.281Z,20.52
2023-04-25T09:52:28.132Z,20.59
2023-04-25T09:55:13.115Z,20.67
2023-04-25T09:57:40.978Z,20.73
2023-04-25T10:00:12.034Z,20.85
2023-04-25T10:02:42.465Z,20.94
2023-04-25T10:05:10.580Z,21.02
2023-04-25T10:07:41.507Z,21.10
2023-04-25T10:10:16.651Z,21.19
2023-04-25T10:12:45.321Z,21.23
2023-04-25T10:15:12.227Z,21.35
2023-04-25T10:17:39.237Z,21.44
2023-04-25T10:20:13.663Z,21.57
2023-04-25T10:22:45.202Z,21.71
2023-04-25T10:25:12.301Z,21.85
2023-04-25T10:27:39.994Z,21.98
2023-04-25T10:30:13.814Z,22.10
2023-04-25T10:32:40.786Z,22.22
2023-04-25T10:35:17.456Z,22.34
2023-04-25T10:38:06.870Z,22.43
2023-04-25T10:40:34.260Z,22.51
2023-04-25T10:43:29.213Z,22.57
2023-04-25T10:45:56.077Z,22.64
2023-04-25T10:48:49.144Z,22.66
2023-04-25T10:51:37.148Z,22.59
2023-04-25T10:54:10.699Z,22.50
2023-04-25T10:56:38.998Z,22.50
2023-04-25T10:59:10.993Z,22.52
2023-04-25T11:01:42.551Z,22.55
2023-04-25T11:04:23.006Z,22.60
2023-04-25T11:07:06.360Z,22.68
2023-04-25T11:09:35.259Z,22.70
2023-04-25T11:12:02.114Z,22.65
2023-04-25T11:14:29.159Z,22.60
2023-04-25T11:17:00.371Z,22.55
2023-04-25T11:19:28.287Z,22.47
2023-04-25T11:21:59.154Z,22.43
2023-04-25T11:24:33.434Z,22.46
2023-04-25T11:27:00.273Z,22.50
2023-04-25T11:29:34.831Z,22.55
2023-04-25T11:32:02.365Z,22.66
2023-04-25T11:34:31.927Z,22.78
2023-04-25T11:36:59.126Z,22.86
2023-04-25T11:39:26.256Z,22.87
2023-04-25T11:41:53.880Z,22.76
2023-04-25T11:44:21.011Z,22.76
2023-04-25T11:46:48.343Z,22.76
2023-04-25T11:49:15.992Z,22.77
2023-04-25T11:51:44.343Z,22.84
2023-04-25T11:54:13.148Z,22.93
2023-04-25T11:56:43.775Z,23.03
2023-04-25T11:59:11.608Z,23.07
2023-04-25T12:01:41.959Z,23.17
2023-04-25T12:04:19.007Z,23.14
2023-04-25T12:06:49.694Z,23.11
2023-04-25T12:09:19.574Z,23.09
2023-04-25T12:11:48.183Z,23.07
2023-04-25T12:14:31.044Z,23.05
2023-04-25T12:17:00.700Z,23.07
2023-04-25T12:19:29.281Z,23.13
2023-04-25T12:21:58.825Z,23.19
2023-04-25T12:24:28.435Z,23.19
2023-04-25T12:27:06.306Z,23.14
2023-04-25T12:29:38.548Z,23.08
2023-04-25T12:33:03.873Z,22.85
2023-04-25T12:35:31.849Z,23.02
2023-04-25T12:37:58.725Z,23.07
2023-04-25T12:40:25.842Z,23.14
2023-04-25T12:42:52.720Z,23.29
2023-04-25T12:45:19.559Z,23.42
2023-04-25T12:47:46.878Z,23.63
2023-04-25T12:50:14.036Z,23.79
2023-04-25T12:52:40.834Z,23.88
2023-04-25T12:55:07.823Z,23.86
2023-04-25T12:57:34.692Z,23.79
2023-04-25T13:00:01.578Z,23.78
2023-04-25T13:02:28.558Z,23.72
2023-04-25T13:04:55.503Z,23.58
2023-04-25T13:07:22.263Z,23.57
2023-04-25T13:09:49.177Z,23.65
2023-04-25T13:12:16.646Z,23.82
2023-04-25T13:14:43.458Z,24.05
2023-04-25T13:17:10.383Z,24.28
2023-04-25T13:19:37.158Z,24.52
2023-04-25T13:22:05.374Z,24.74
2023-04-25T13:24:32.304Z,24.99
2023-04-25T13:26:59.250Z,25.18
2023-04-25T13:29:26.086Z,25.26
2023-04-25T13:31:53.037Z,25.38
2023-04-25T13:34:19.879Z,25.43
2023-04-25T13:36:47.103Z,25.47
2023-04-25T13:39:14.585Z,25.81
2023-04-25T13:41:41.620Z,27.01
2023-04-25T13:44:08.529Z,28.60
2023-04-25T13:46:46.232Z,30.17
2023-04-25T13:49:14.284Z,31.97
2023-04-25T13:51:41.645Z,33.56
2023-04-25T13:54:08.753Z,34.87
2023-04-25T13:56:35.749Z,35.75
2023-04-25T13:59:02.692Z,36.51
2023-04-25T14:01:31.627Z,37.24
2023-04-25T14:03:58.706Z,37.66
2023-04-25T14:06:26.395Z,37.96
2023-04-25T14:08:53.200Z,38.27
2023-04-25T14:11:20.214Z,38.62
2023-04-25T14:13:47.333Z,39.15
2023-04-25T14:16:14.214Z,39.73
2023-04-25T14:18:41.119Z,40.16
2023-04-25T14:21:08.008Z,40.49
2023-04-25T14:23:34.908Z,40.71
2023-04-25T14:26:01.861Z,41.03
2023-04-25T14:28:28.715Z,41.28
2023-04-25T14:30:55.736Z,41.51
2023-04-25T14:33:22.908Z,41.74
2023-04-25T14:35:49.809Z,41.99
2023-04-25T14:38:16.654Z,42.28
2023-04-25T14:40:43.600Z,42.46
2023-04-25T14:43:10.607Z,42.39
2023-04-25T14:45:37.437Z,42.37
2023-04-25T14:48:04.610Z,42.41
2023-04-25T14:50:31.767Z,41.97
2023-04-25T14:53:00.198Z,41.49
2023-04-25T14:55:30.076Z,41.15
2023-04-25T14:57:57.649Z,40.92
2023-04-25T15:00:26.220Z,40.60
2023-04-25T15:02:53.373Z,39.97
2023-04-25T15:05:21.142Z,39.25
2023-04-25T15:07:49.010Z,38.54
2023-04-25T15:10:17.234Z,37.46
2023-04-25T15:12:45.646Z,36.37
2023-04-25T15:15:22.506Z,36.01
2023-04-25T15:17:52.680Z,36.27
2023-04-25T15:20:19.572Z,36.78
2023-04-25T15:22:46.960Z,37.27
2023-04-25T15:25:13.892Z,37.63
2023-04-25T15:27:45.087Z,37.95
2023-04-25T15:30:13.640Z,38.20
2023-04-25T15:32:40.616Z,38.35
2023-04-25T15:35:07.806Z,38.41
2023-04-25T15:37:34.956Z,38.40
2023-04-25T15:40:14.222Z,38.19
2023-04-25T15:42:54.210Z,37.47
2023-04-25T15:45:26.401Z,36.73
2023-04-25T15:47:55.170Z,36.38
2023-04-25T15:50:22.394Z,36.28
2023-04-25T15:52:50.233Z,36.33
2023-04-25T15:55:17.556Z,36.31
2023-04-25T15:57:44.464Z,36.23
2023-04-25T16:00:13.277Z,36.20
2023-04-25T16:02:40.835Z,36.08
2023-04-25T16:05:09.107Z,35.88
2023-04-25T16:07:36.380Z,35.65
2023-04-25T16:10:03.486Z,35.41
2023-04-25T16:12:31.182Z,35.23
2023-04-25T16:14:58.424Z,35.09
2023-04-25T16:17:25.917Z,34.85
2023-04-25T16:19:52.767Z,34.56
2023-04-25T16:22:19.611Z,34.29
2023-04-25T16:24:46.547Z,34.01
2023-04-25T16:27:13.401Z,33.75
2023-04-25T16:29:41.371Z,33.45
2023-04-25T16:32:08.265Z,33.05
2023-04-25T16:34:35.201Z,32.67
2023-04-25T16:37:02.101Z,32.29
2023-04-25T16:39:28.939Z,31.73
2023-04-25T16:41:55.866Z,30.99
2023-04-25T16:44:22.708Z,30.21
2023-04-25T16:46:49.608Z,29.52
2023-04-25T16:49:16.594Z,28.89
2023-04-25T16:51:43.494Z,28.28
2023-04-25T16:54:10.360Z,27.75
2023-04-25T16:56:37.375Z,27.31
2023-04-25T16:59:04.236Z,26.84
2023-04-25T17:01:32.964Z,26.40
2023-04-25T17:04:00.203Z,26.02
2023-04-25T17:06:27.458Z,25.69
2023-04-25T17:08:54.633Z,25.38
2023-04-25T17:11:21.624Z,25.07
2023-04-25T17:13:48.510Z,24.80
2023-04-25T17:16:18.590Z,24.57
2023-04-25T17:18:45.424Z,24.30
2023-04-25T17:21:12.307Z,24.00
2023-04-25T17:23:44.906Z,23.74
2023-04-25T17:26:14.848Z,23.44
2023-04-25T17:28:42.293Z,23.19
2023-04-25T17:31:09.834Z,22.95
2023-04-25T17:33:36.888Z,22.75
2023-04-25T17:36:05.386Z,22.56
2023-04-25T17:38:32.823Z,22.33
2023-04-25T17:40:59.778Z,22.14
2023-04-25T17:43:27.726Z,21.97
2023-04-25T17:45:54.757Z,21.82
2023-04-25T17:48:25.051Z,21.69
2023-04-25T17:50:51.888Z,21.56
2023-04-25T17:53:18.738Z,21.39
2023-04-25T17:55:45.682Z,21.22
2023-04-25T17:58:12.573Z,21.07
2023-04-25T18:00:39.520Z,20.92
2023-04-25T18:03:07.035Z,20.76
2023-04-25T18:05:33.936Z,20.59
2023-04-25T18:08:00.940Z,20.42
2023-04-25T18:10:27.783Z,20.25
2023-04-25T18:12:54.829Z,20.09
2023-04-25T18:15:23.090Z,19.98
2023-04-25T18:17:50.325Z,19.86
2023-04-25T18:20:17.217Z,19.72
2023-04-25T18:22:44.769Z,19.59
2023-04-25T18:25:11.774Z,19.43
2023-04-25T18:27:38.869Z,19.28
2023-04-25T18:30:07.154Z,19.16
2023-04-25T18:32:34.058Z,19.05
2023-04-25T18:35:01.136Z,18.93
2023-04-25T18:37:28.405Z,18.83
2023-04-25T18:39:55.248Z,18.71
2023-04-25T18:42:22.564Z,18.62
2023-04-25T18:44:49.477Z,18.52
2023-04-25T18:47:16.711Z,18.40
2023-04-25T18:49:43.705Z,18.29
2023-04-25T18:52:12.310Z,18.20
2023-04-25T18:54:39.327Z,18.09
2023-04-25T18:57:06.296Z,17.96
2023-04-25T18:59:33.537Z,17.84
2023-04-25T19:02:05.434Z,17.73
2023-04-25T19:04:32.771Z,17.62
2023-04-25T19:06:59.839Z,17.54
2023-04-25T19:09:26.867Z,17.45
2023-04-25T19:11:54.206Z,17.37
2023-04-25T19:14:21.113Z,17.29
2023-04-25T19:16:48.185Z,17.21
2023-04-25T19:19:15.129Z,17.15
2023-04-25T19:21:42.042Z,17.09
2023-04-25T19:24:09.310Z,17.02
2023-04-25T19:26:36.705Z,16.90
2023-04-25T19:29:06.027Z,16.76
2023-04-25T19:31:34.996Z,16.66
2023-04-25T19:34:02.032Z,16.58
2023-04-25T19:36:28.907Z,16.48
2023-04-25T19:39:02.100Z,16.40
2023-04-25T19:41:29.532Z,16.32
2023-04-25T19:43:56.364Z,16.22
2023-04-25T19:46:23.746Z,16.13
2023-04-25T19:48:50.658Z,16.06
2023-04-25T19:51:17.770Z,16.01
2023-04-25T19:53:44.729Z,15.92
2023-04-25T19:56:11.573Z,15.85
2023-04-25T19:58:38.396Z,15.77
2023-04-25T20:01:05.431Z,15.68
2023-04-25T20:03:32.379Z,15.58
2023-04-25T20:05:59.317Z,15.51
2023-04-25T20:08:26.394Z,15.46
2023-04-25T20:10:53.339Z,15.40
2023-04-25T20:13:20.277Z,15.37
2023-04-25T20:15:47.116Z,15.34
2023-04-25T20:18:14.066Z,15.32
2023-04-25T20:20:41.129Z,15.29
2023-04-25T20:23:07.961Z,15.27
2023-04-25T20:25:34.853Z,15.24
2023-04-25T20:28:01.675Z,15.21
2023-04-25T20:30:28.516Z,15.20
2023-04-25T20:32:55.353Z,15.21
2023-04-25T20:35:23.057Z,15.20
2023-04-25T20:37:50.977Z,15.19
2023-04-25T20:40:18.340Z,15.19
2023-04-25T20:42:46.123Z,15.18
2023-04-25T20:45:14.640Z,15.18
2023-04-25T20:47:42.812Z,15.20
2023-04-25T20:50:11.062Z,15.22
2023-04-25T20:52:38.765Z,15.23
2023-04-25T20:55:06.977Z,15.24
2023-04-25T20:57:33.809Z,15.25
2023-04-25T21:00:00.695Z,15.26
2023-04-25T21:02:27.687Z,15.27
2023-04-25T21:04:54.699Z,15.26
2023-04-25T21:07:21.709Z,15.24
2023-04-25T21:09:48.707Z,15.28
2023-04-25T21:12:15.543Z,15.31
2023-04-25T21:14:42.349Z,15.32
2023-04-25T21:17:09.284Z,15.31
2023-04-25T21:19:36.101Z,15.31
2023-04-25T21:22:03.753Z,15.32
2023-04-25T21:24:33.211Z,15.33
2023-04-25T21:27:00.147Z,15.33
2023-04-25T21:29:27.063Z,15.30
2023-04-25T21:31:53.928Z,15.30
2023-04-25T21:34:20.850Z,15.30
2023-04-25T21:36:48.549Z,15.23
2023-04-25T21:39:15.493Z,15.19
2023-04-25T21:41:44.364Z,15.21
2023-04-25T21:44:12.698Z,15.16
2023-04-25T21:46:39.662Z,15.08
2023-04-25T21:49:07.091Z,15.02
2023-04-25T21:51:34.033Z,14.98
2023-04-25T21:54:05.216Z,14.92
2023-04-25T21:56:32.980Z,14.82
2023-04-25T21:58:59.848Z,14.72
2023-04-25T22:01:27.746Z,14.64
2023-04-25T22:03:55.106Z,14.59
2023-04-25T22:06:22.221Z,14.54
2023-04-25T22:08:49.129Z,14.48
2023-04-25T22:11:16.061Z,14.44
2023-04-25T22:13:43.035Z,14.35
2023-04-25T22:16:12.307Z,14.25
2023-04-25T22:18:40.496Z,14.19
2023-04-25T22:21:07.442Z,14.12
2023-04-25T22:23:35.023Z,14.06
2023-04-25T22:26:02.661Z,14.01
2023-04-25T22:28:29.683Z,14.01
2023-04-25T22:30:56.531Z,13.99
2023-04-25T22:33:23.385Z,13.88
2023-04-25T22:35:50.329Z,13.82
2023-04-25T22:38:17.321Z,13.82
2023-04-25T22:40:47.965Z,13.80
2023-04-25T22:43:15.932Z,13.74
2023-04-25T22:45:42.870Z,13.68
2023-04-25T22:48:09.957Z,13.63
2023-04-25T22:50:39.798Z,13.55
2023-04-25T22:53:07.589Z,13.50
2023-04-25T22:55:36.086Z,13.48
2023-04-25T22:58:08.648Z,13.46
2023-04-25T23:00:36.002Z,13.43
2023-04-25T23:03:04.064Z,13.40
2023-04-25T23:05:32.821Z,13.36
2023-04-25T23:07:59.839Z,13.33
2023-04-25T23:10:28.227Z,13.29
2023-04-25T23:12:58.113Z,13.26
2023-04-25T23:15:31.122Z,13.23
2023-04-25T23:17:58.453Z,13.19
2023-04-25T23:20:25.480Z,13.18
2023-04-25T23:22:52.723Z,13.18
2023-04-25T23:25:19.548Z,13.16
2023-04-25T23:27:46.412Z,13.14
2023-04-25T23:30:13.583Z,13.10
2023-04-25T23:32:40.607Z,13.08
2023-04-25T23:35:07.886Z,13.03
2023-04-25T23:37:35.723Z,12.99
2023-04-25T23:40:08.394Z,12.96
2023-04-25T23:42:36.523Z,12.94
2023-04-25T23:45:05.163Z,12.92
2023-04-25T23:47:32.492Z,12.91
2023-04-25T23:49:59.447Z,12.89
2023-04-25T23:52:27.968Z,12.86
2023-04-25T23:54:55.668Z,12.81
2023-04-25T23:57:22.928Z,12.79
2023-04-25T23:59:49.798Z,12.78
